createdAt,value
2023-01-31T00:01:15.652Z,98696.34
2023-01-31T00:05:19.905Z,98714.50
2023-01-31T00:09:22.188Z,98718.78
2023-01-31T00:13:24.170Z,98702.34
2023-01-31T00:17:26.192Z,98710.09
2023-01-31T00:21:29.770Z,98704.00
2023-01-31T00:25:31.797Z,98697.06
2023-01-31T00:29:34.681Z,98709.19
2023-01-31T00:33:38.655Z,98708.31
2023-01-31T00:42:19.341Z,98694.44
2023-01-31T00:46:22.098Z,98695.31
2023-01-31T00:50:24.232Z,98694.50
2023-01-31T00:54:26.259Z,98697.13
2023-01-31T00:58:28.355Z,98699.81
2023-01-31T01:02:31.490Z,98699.81
2023-01-31T01:06:33.905Z,98694.66
2023-01-31T01:10:36.738Z,98696.41
2023-01-31T01:14:38.715Z,98709.41
2023-01-31T01:18:40.847Z,98709.41
2023-01-31T01:22:42.951Z,98716.28
2023-01-31T01:26:45.784Z,98711.06
2023-01-31T01:30:47.811Z,98724.91
2023-01-31T01:34:49.949Z,98724.03
2023-01-31T01:38:52.349Z,98719.75
2023-01-31T01:42:54.347Z,98718.88
2023-01-31T01:46:56.575Z,98712.84
2023-01-31T01:50:59.434Z,98712.88
2023-01-31T01:55:13.008Z,98713.78
2023-01-31T01:59:24.182Z,98725.88
2023-01-31T02:03:27.294Z,98696.56
2023-01-31T02:07:30.299Z,98705.25
2023-01-31T02:11:32.406Z,98708.69
2023-01-31T02:15:35.863Z,98709.59
2023-01-31T02:20:15.031Z,98709.56
2023-01-31T02:24:54.191Z,98704.34
2023-01-31T02:29:13.773Z,98713.88
2023-01-31T02:33:39.165Z,98710.41
2023-01-31T02:38:02.499Z,98704.38
2023-01-31T02:42:29.861Z,98707.00
2023-01-31T02:46:42.641Z,98701.81
2023-01-31T02:50:56.674Z,98704.41
2023-01-31T02:55:45.687Z,98707.03
2023-01-31T02:59:48.910Z,98710.47
2023-01-31T03:03:51.806Z,98724.28
2023-01-31T03:07:58.092Z,98726.00
2023-01-31T03:12:12.508Z,98726.00
2023-01-31T03:16:47.049Z,98732.91
2023-01-31T03:20:58.356Z,98722.56
2023-01-31T03:25:03.618Z,98737.22
2023-01-31T03:29:08.604Z,98754.44
2023-01-31T03:33:23.851Z,98751.88
2023-01-31T03:37:40.716Z,98760.50
2023-01-31T03:42:08.174Z,98758.78
2023-01-31T03:46:26.068Z,98749.28
2023-01-31T03:50:34.664Z,98758.78
2023-01-31T03:54:41.391Z,98766.56
2023-01-31T03:58:50.714Z,98757.06
2023-01-31T04:03:01.961Z,98755.34
2023-01-31T04:07:04.979Z,98763.97
2023-01-31T04:11:12.947Z,98763.09
2023-01-31T04:15:15.883Z,98763.09
2023-01-31T04:19:17.999Z,98750.16
2023-01-31T04:23:20.032Z,98756.19
2023-01-31T04:27:22.087Z,98746.69
2023-01-31T04:31:24.115Z,98740.66
2023-01-31T04:35:26.114Z,98735.50
2023-01-31T04:39:28.302Z,98728.59
2023-01-31T04:43:30.355Z,98717.34
2023-01-31T04:47:32.894Z,98713.91
2023-01-31T04:51:35.213Z,98717.38
2023-01-31T04:55:37.229Z,98717.38
2023-01-31T04:59:39.205Z,98715.66
2023-01-31T05:03:41.205Z,98711.31
2023-01-31T05:07:44.316Z,98716.50
2023-01-31T05:11:46.598Z,98719.94
2023-01-31T05:15:49.427Z,98719.06
2023-01-31T05:19:51.978Z,98713.88
2023-01-31T05:23:53.983Z,98710.44
2023-01-31T05:27:56.013Z,98713.03
2023-01-31T05:32:00.261Z,98712.16
2023-01-31T05:36:03.703Z,98712.16
2023-01-31T05:40:06.634Z,98707.81
2023-01-31T05:44:08.877Z,98706.09
2023-01-31T05:48:10.878Z,98703.50
2023-01-31T05:52:12.888Z,98700.06
2023-01-31T05:56:16.532Z,98696.63
2023-01-31T06:00:19.303Z,98698.31
2023-01-31T06:04:21.380Z,98697.44
2023-01-31T06:08:23.428Z,98689.72
2023-01-31T06:12:25.479Z,98691.44
2023-01-31T06:16:27.670Z,98690.56
2023-01-31T06:20:30.612Z,98682.81
2023-01-31T06:24:33.090Z,98688.84
2023-01-31T06:28:36.550Z,98695.75
2023-01-31T06:32:38.569Z,98692.31
2023-01-31T06:36:40.595Z,98688.91
2023-01-31T06:40:42.863Z,98700.97
2023-01-31T06:44:45.185Z,98707.84
2023-01-31T06:48:48.523Z,98701.75
2023-01-31T06:52:50.570Z,98701.78
2023-01-31T06:56:52.693Z,98707.84
2023-01-31T07:00:54.877Z,98706.13
2023-01-31T07:04:56.888Z,98695.75
2023-01-31T07:08:58.848Z,98702.66
2023-01-31T07:13:01.439Z,98704.38
2023-01-31T07:17:03.529Z,98710.41
2023-01-31T07:21:06.346Z,98716.47
2023-01-31T07:25:08.762Z,98711.25
2023-01-31T07:29:12.055Z,98719.00
2023-01-31T07:33:14.251Z,98713.78
2023-01-31T07:37:16.715Z,98710.28
2023-01-31T07:41:18.724Z,98698.16
2023-01-31T07:45:23.572Z,98706.78
2023-01-31T07:49:25.944Z,98701.59
2023-01-31T07:53:32.293Z,98701.63
2023-01-31T07:57:34.298Z,98704.22
2023-01-31T08:01:54.946Z,98720.66
2023-01-31T08:05:56.944Z,98718.91
2023-01-31T08:09:58.931Z,98710.25
2023-01-31T08:14:00.920Z,98717.13
2023-01-31T08:18:05.935Z,98714.53
2023-01-31T08:22:08.296Z,98715.38
2023-01-31T08:26:16.294Z,98718.84
2023-01-31T08:30:18.441Z,98714.47
2023-01-31T08:34:21.039Z,98706.66
2023-01-31T08:38:23.551Z,98705.78
2023-01-31T08:42:25.546Z,98711.78
2023-01-31T08:46:30.875Z,98711.75
2023-01-31T08:50:34.030Z,98697.78
2023-01-31T08:54:36.626Z,98684.75
2023-01-31T08:58:41.858Z,98693.28
2023-01-31T09:02:46.260Z,98706.16
2023-01-31T09:06:49.602Z,98722.53
2023-01-31T09:10:53.224Z,98731.91
2023-01-31T09:14:55.241Z,98721.56
2023-01-31T09:18:57.426Z,98704.28
2023-01-31T09:22:59.417Z,98701.63
2023-01-31T09:27:01.568Z,98701.63
2023-01-31T09:31:09.498Z,98704.22
2023-01-31T09:35:14.126Z,98707.81
2023-01-31T09:39:16.447Z,98682.75
2023-01-31T09:43:22.470Z,98681.00
2023-01-31T09:47:33.957Z,98674.03
2023-01-31T09:51:38.181Z,98669.72
2023-01-31T09:55:56.174Z,98676.59
2023-01-31T10:00:02.378Z,98671.41
2023-01-31T10:04:28.451Z,98685.22
2023-01-31T10:08:47.120Z,98689.53
2023-01-31T10:12:54.361Z,98698.16
2023-01-31T10:17:06.776Z,98675.59
2023-01-31T10:21:31.562Z,98662.63
2023-01-31T10:25:55.320Z,98660.91
2023-01-31T10:30:02.923Z,98641.06
2023-01-31T10:34:14.843Z,98655.81
2023-01-31T10:38:54.996Z,98659.38
2023-01-31T10:43:18.504Z,98658.50
2023-01-31T10:47:29.481Z,98656.81
2023-01-31T10:51:50.238Z,98648.16
2023-01-31T10:56:01.509Z,98635.09
2023-01-31T11:00:04.224Z,98637.75
2023-01-31T11:04:24.112Z,98618.72
2023-01-31T11:08:49.376Z,98605.69
2023-01-31T11:12:57.712Z,98598.66
2023-01-31T11:17:08.806Z,98609.84
2023-01-31T11:21:20.117Z,98599.41
2023-01-31T11:25:24.686Z,98579.41
2023-01-31T11:29:34.392Z,98572.41
2023-01-31T11:33:45.925Z,98561.91
2023-01-31T11:37:55.784Z,98546.31
2023-01-31T11:42:06.308Z,98541.09
2023-01-31T11:46:08.605Z,98522.00
2023-01-31T11:50:26.102Z,98512.44
2023-01-31T11:54:34.086Z,98520.25
2023-01-31T11:58:39.956Z,98541.06
2023-01-31T12:02:42.281Z,98515.00
2023-01-31T12:07:02.975Z,98495.94
2023-01-31T12:11:28.701Z,98494.13
2023-01-31T12:15:31.924Z,98495.81
2023-01-31T12:20:05.582Z,98480.06
2023-01-31T12:24:24.656Z,98479.06
2023-01-31T12:28:32.567Z,98471.19
2023-01-31T12:33:13.731Z,98460.84
2023-01-31T12:37:27.926Z,98471.28
2023-01-31T12:41:39.734Z,98449.72
2023-01-31T12:46:04.094Z,98453.13
2023-01-31T12:50:30.578Z,98448.78
2023-01-31T12:54:58.980Z,98454.75
2023-01-31T12:59:26.099Z,98438.94
2023-01-31T13:03:34.831Z,98424.94
2023-01-31T13:07:56.098Z,98405.13
2023-01-31T13:12:07.780Z,98390.25
2023-01-31T13:16:34.867Z,98401.44
2023-01-31T13:20:48.550Z,98398.06
2023-01-31T13:25:20.444Z,98404.91
2023-01-31T13:29:34.516Z,98407.44
2023-01-31T13:33:41.073Z,98411.84
2023-01-31T13:37:46.776Z,98395.47
2023-01-31T13:41:48.789Z,98395.44
2023-01-31T13:45:58.922Z,98393.63
2023-01-31T13:50:18.641Z,98387.59
2023-01-31T13:54:26.413Z,98396.38
2023-01-31T13:58:34.136Z,98399.16
2023-01-31T14:02:36.597Z,98388.84
2023-01-31T14:06:56.865Z,98387.19
2023-01-31T14:11:25.189Z,98382.97
2023-01-31T14:15:51.218Z,98388.25
2023-01-31T14:19:55.008Z,98391.72
2023-01-31T14:24:02.048Z,98393.41
2023-01-31T14:28:04.282Z,98391.66
2023-01-31T14:32:15.143Z,98378.56
2023-01-31T14:36:36.381Z,98364.56
2023-01-31T14:40:51.137Z,98366.25
2023-01-31T14:45:20.481Z,98363.69
2023-01-31T14:49:34.923Z,98369.03
2023-01-31T14:53:58.381Z,98369.91
2023-01-31T14:58:03.779Z,98379.34
2023-01-31T15:02:42.729Z,98362.03
2023-01-31T15:06:50.645Z,98354.94
2023-01-31T15:11:12.784Z,98363.53
2023-01-31T15:15:35.531Z,98353.97
2023-01-31T15:19:53.032Z,98371.25
2023-01-31T15:23:55.985Z,98368.63
2023-01-31T15:28:00.711Z,98382.50
2023-01-31T15:32:14.000Z,98390.34
2023-01-31T15:36:43.580Z,98385.97
2023-01-31T15:40:45.552Z,98374.72
2023-01-31T15:44:47.611Z,98373.84
2023-01-31T15:48:50.161Z,98364.31
2023-01-31T15:52:55.144Z,98372.25
2023-01-31T15:56:57.683Z,98368.00
2023-01-31T16:01:01.619Z,98386.25
2023-01-31T16:05:07.774Z,98381.09
2023-01-31T16:09:27.446Z,98381.16
2023-01-31T16:13:30.524Z,98395.94
2023-01-31T16:17:33.205Z,98392.50
2023-01-31T16:21:46.305Z,98388.19
2023-01-31T16:26:01.400Z,98387.31
2023-01-31T16:30:04.525Z,98392.38
2023-01-31T16:34:21.690Z,98382.81
2023-01-31T16:38:27.033Z,98377.66
2023-01-31T16:42:31.098Z,98393.31
2023-01-31T16:46:41.525Z,98389.84
2023-01-31T16:50:43.943Z,98395.81
2023-01-31T16:54:50.994Z,98399.22
2023-01-31T16:58:58.505Z,98400.97
2023-01-31T17:03:01.563Z,98390.66
2023-01-31T17:07:08.339Z,98401.91
2023-01-31T17:11:16.644Z,98389.75
2023-01-31T17:15:25.871Z,98391.50
2023-01-31T17:19:29.296Z,98402.63
2023-01-31T17:23:31.304Z,98384.41
2023-01-31T17:27:33.362Z,98407.03
2023-01-31T17:31:35.853Z,98389.84
2023-01-31T17:35:44.580Z,98391.56
2023-01-31T17:39:46.601Z,98389.84
2023-01-31T17:43:48.640Z,98397.56
2023-01-31T17:47:50.851Z,98393.31
2023-01-31T17:51:52.922Z,98393.31
2023-01-31T17:55:55.039Z,98395.09
2023-01-31T17:59:57.039Z,98386.50
2023-01-31T18:04:00.650Z,98389.19
2023-01-31T18:08:02.722Z,98402.19
2023-01-31T18:12:04.927Z,98397.69
2023-01-31T18:16:12.610Z,98407.16
2023-01-31T18:20:14.787Z,98399.28
2023-01-31T18:24:16.804Z,98381.03
2023-01-31T18:28:18.829Z,98388.06
2023-01-31T18:32:20.909Z,98391.59
2023-01-31T18:36:22.975Z,98409.84
2023-01-31T18:40:25.052Z,98408.19
2023-01-31T18:44:29.174Z,98396.91
2023-01-31T18:48:32.443Z,98407.34
2023-01-31T18:52:35.634Z,98421.25
2023-01-31T18:56:37.641Z,98410.88
2023-01-31T19:00:39.668Z,98403.13
2023-01-31T19:04:42.501Z,98408.31
2023-01-31T19:08:48.843Z,98415.22
2023-01-31T19:12:50.869Z,98409.16
2023-01-31T19:16:52.890Z,98401.28
2023-01-31T19:20:55.124Z,98403.81
2023-01-31T19:24:58.076Z,98397.72
2023-01-31T19:29:00.230Z,98403.00
2023-01-31T19:33:02.253Z,98398.75
2023-01-31T19:37:04.270Z,98401.41
2023-01-31T19:41:15.068Z,98398.72
2023-01-31T19:45:21.829Z,98389.13
2023-01-31T19:49:24.882Z,98394.25
2023-01-31T19:53:26.968Z,98403.72
2023-01-31T19:57:28.975Z,98408.03
2023-01-31T20:01:30.956Z,98395.84
2023-01-31T20:05:33.533Z,98400.19
2023-01-31T20:09:35.556Z,98400.19
2023-01-31T20:13:37.572Z,98415.75
2023-01-31T20:17:39.556Z,98412.25
2023-01-31T20:21:41.533Z,98405.22
2023-01-31T20:25:43.592Z,98414.75
2023-01-31T20:29:45.569Z,98424.31
2023-01-31T20:33:47.550Z,98427.75
2023-01-31T20:37:49.523Z,98419.97
2023-01-31T20:41:51.561Z,98433.03
2023-01-31T20:46:01.682Z,98426.16
2023-01-31T20:50:04.026Z,98438.41
2023-01-31T20:54:06.507Z,98425.50
2023-01-31T20:58:08.515Z,98436.84
2023-01-31T21:02:11.366Z,98425.66
2023-01-31T21:06:13.401Z,98427.41
2023-01-31T21:10:15.551Z,98425.63
2023-01-31T21:14:17.512Z,98436.78
2023-01-31T21:18:20.339Z,98429.81
2023-01-31T21:22:22.420Z,98428.72
2023-01-31T21:26:26.699Z,98430.03
2023-01-31T21:30:29.223Z,98411.31
2023-01-31T21:34:31.287Z,98398.56
2023-01-31T21:38:33.301Z,98395.25
2023-01-31T21:42:35.391Z,98391.09
2023-01-31T21:46:37.486Z,98407.84
2023-01-31T21:50:39.486Z,98400.31
2023-01-31T21:54:41.484Z,98398.66
2023-01-31T21:58:44.357Z,98401.13
2023-01-31T22:02:51.669Z,98392.38
2023-01-31T22:06:55.355Z,98391.41
2023-01-31T22:11:05.869Z,98375.00
2023-01-31T22:15:08.551Z,98366.34
2023-01-31T22:19:12.832Z,98376.78
2023-01-31T22:23:14.846Z,98373.41
2023-01-31T22:27:16.839Z,98370.06
2023-01-31T22:31:19.354Z,98364.09
2023-01-31T22:35:21.480Z,98373.59
2023-01-31T22:39:23.563Z,98371.81
2023-01-31T22:43:25.963Z,98383.91
2023-01-31T22:47:27.998Z,98371.69
2023-01-31T22:51:30.132Z,98371.47
2023-01-31T22:55:32.157Z,98381.00
2023-01-31T22:59:34.176Z,98373.16
2023-01-31T23:03:36.227Z,98353.97
2023-01-31T23:07:38.245Z,98352.22
2023-01-31T23:11:40.239Z,98356.63
2023-01-31T23:15:42.298Z,98347.16
2023-01-31T23:19:44.352Z,98344.63
2023-01-31T23:23:46.504Z,98343.03
2023-01-31T23:27:48.608Z,98346.69
2023-01-31T23:31:50.604Z,98345.03
2023-01-31T23:35:52.694Z,98357.09
2023-01-31T23:39:54.688Z,98349.34
2023-01-31T23:43:56.717Z,98332.13
2023-01-31T23:47:58.776Z,98330.31
2023-01-31T23:52:00.816Z,98341.47
2023-01-31T23:56:02.850Z,98333.56
